createdAt,value
2018-09-28T00:00:11.711Z,87.00
2018-09-28T00:02:41.514Z,87.36
2018-09-28T00:05:11.324Z,87.54
2018-09-28T00:07:41.195Z,87.00
2018-09-28T00:10:11.017Z,87.00
2018-09-28T00:12:40.875Z,86.37
2018-09-28T00:15:10.735Z,85.85
2018-09-28T00:17:40.558Z,85.90
2018-09-28T00:20:10.383Z,85.66
2018-09-28T00:22:40.209Z,85.17
2018-09-28T00:25:09.972Z,84.69
2018-09-28T00:27:39.824Z,83.54
2018-09-28T00:30:09.806Z,83.65
2018-09-28T00:32:39.716Z,83.26
2018-09-28T00:35:09.560Z,83.28
2018-09-28T00:37:39.400Z,82.82
2018-09-28T00:40:09.731Z,83.10
2018-09-28T00:42:39.564Z,82.83
2018-09-28T00:45:09.356Z,82.77
2018-09-28T00:47:39.188Z,82.79
2018-09-28T00:50:09.040Z,81.84
2018-09-28T00:52:38.888Z,81.76
2018-09-28T00:55:08.756Z,82.14
2018-09-28T00:57:38.576Z,81.82
2018-09-28T01:00:08.379Z,82.06
2018-09-28T01:02:38.154Z,82.40
2018-09-28T01:05:08.028Z,82.42
2018-09-28T01:07:37.719Z,82.21
2018-09-28T01:10:07.618Z,81.87
2018-09-28T01:12:37.360Z,82.18
2018-09-28T01:15:07.158Z,82.66
2018-09-28T01:17:36.928Z,82.47
2018-09-28T01:20:06.845Z,81.69
2018-09-28T01:22:36.817Z,82.60
2018-09-28T01:25:06.572Z,82.79
2018-09-28T01:27:36.312Z,83.05
2018-09-28T01:30:06.360Z,82.82
2018-09-28T01:32:35.771Z,82.76
2018-09-28T01:35:05.607Z,82.39
2018-09-28T01:37:35.305Z,81.61
2018-09-28T01:40:05.176Z,81.48
2018-09-28T01:42:34.897Z,81.99
2018-09-28T01:45:04.915Z,81.95
2018-09-28T01:47:34.664Z,81.52
2018-09-28T01:50:04.788Z,81.36
2018-09-28T01:52:34.579Z,81.80
2018-09-28T01:55:04.385Z,81.83
2018-09-28T01:57:34.128Z,81.92
2018-09-28T02:00:04.014Z,81.79
2018-09-28T02:02:33.364Z,81.91
2018-09-28T02:05:02.821Z,82.10
2018-09-28T02:07:32.650Z,82.27
2018-09-28T02:10:02.424Z,81.93
2018-09-28T02:12:32.224Z,82.01
2018-09-28T02:15:01.928Z,81.65
2018-09-28T02:17:31.712Z,81.46
2018-09-28T02:20:01.527Z,80.87
2018-09-28T02:22:30.937Z,80.94
2018-09-28T02:25:00.746Z,79.95
2018-09-28T02:27:30.147Z,79.97
2018-09-28T02:29:59.945Z,80.56
2018-09-28T02:32:29.370Z,80.03
2018-09-28T02:34:59.140Z,80.67
2018-09-28T02:37:28.925Z,79.61
2018-09-28T02:39:58.619Z,78.85
2018-09-28T02:42:28.356Z,78.45
2018-09-28T02:44:58.811Z,78.20
2018-09-28T02:47:28.535Z,78.17
2018-09-28T02:49:58.304Z,77.69
2018-09-28T02:52:28.050Z,77.49
2018-09-28T02:54:57.862Z,77.41
2018-09-28T02:57:27.658Z,77.61
2018-09-28T02:59:57.419Z,77.81
2018-09-28T03:02:27.121Z,77.82
2018-09-28T03:04:56.897Z,78.07
2018-09-28T03:07:26.628Z,78.66
2018-09-28T03:09:56.385Z,77.87
2018-09-28T03:12:26.096Z,78.25
2018-09-28T03:14:55.864Z,79.39
2018-09-28T03:17:25.735Z,78.97
2018-09-28T03:19:55.635Z,79.51
2018-09-28T03:22:25.296Z,79.17
2018-09-28T03:24:55.149Z,79.22
2018-09-28T03:27:24.821Z,79.80
2018-09-28T03:29:54.599Z,80.19
2018-09-28T03:32:24.329Z,79.83
2018-09-28T03:34:54.119Z,79.50
2018-09-28T03:37:23.919Z,79.07
2018-09-28T03:39:53.617Z,79.01
2018-09-28T03:42:23.383Z,79.20
2018-09-28T03:44:53.109Z,79.13
2018-09-28T03:47:22.905Z,79.71
2018-09-28T03:49:52.615Z,79.47
2018-09-28T03:52:22.356Z,79.82
2018-09-28T03:54:52.131Z,79.13
2018-09-28T03:57:22.142Z,77.99
2018-09-28T03:59:52.045Z,77.51
2018-09-28T04:02:21.824Z,77.98
2018-09-28T04:04:51.623Z,78.67
2018-09-28T04:07:24.894Z,79.10
2018-09-28T04:09:54.820Z,78.21
2018-09-28T04:12:24.252Z,78.55
2018-09-28T04:14:54.060Z,78.47
2018-09-28T04:17:23.852Z,79.17
2018-09-28T04:19:53.665Z,79.20
2018-09-28T04:22:23.854Z,79.04
2018-09-28T04:24:53.843Z,79.24
2018-09-28T04:27:23.346Z,79.52
2018-09-28T04:29:53.184Z,78.25
2018-09-28T04:32:23.386Z,79.23
2018-09-28T04:34:53.465Z,78.53
2018-09-28T04:37:23.243Z,78.36
2018-09-28T04:39:52.648Z,78.66
2018-09-28T04:42:22.451Z,79.23
2018-09-28T04:44:52.190Z,78.60
2018-09-28T04:47:21.951Z,78.16
2018-09-28T04:49:51.674Z,77.80
2018-09-28T04:52:21.560Z,77.37
2018-09-28T04:54:51.342Z,78.11
2018-09-28T04:57:21.137Z,77.98
2018-09-28T04:59:50.843Z,78.23
2018-09-28T05:02:20.623Z,79.06
2018-09-28T05:04:51.006Z,78.90
2018-09-28T05:07:20.902Z,78.25
2018-09-28T05:09:50.628Z,77.95
2018-09-28T05:12:20.411Z,76.90
2018-09-28T05:14:49.774Z,74.99
2018-09-28T05:17:19.635Z,74.49
2018-09-28T05:19:49.052Z,73.96
2018-09-28T05:22:18.883Z,74.09
2018-09-28T05:24:48.312Z,74.24
2018-09-28T05:27:18.018Z,73.51
2018-09-28T05:29:47.804Z,73.22
2018-09-28T05:32:17.688Z,73.55
2018-09-28T05:34:47.328Z,73.92
2018-09-28T05:37:17.185Z,72.99
2018-09-28T05:39:46.912Z,72.64
2018-09-28T05:42:16.724Z,72.96
2018-09-28T05:44:46.474Z,72.75
2018-09-28T05:47:16.242Z,72.22
2018-09-28T05:49:46.063Z,72.67
2018-09-28T05:52:15.790Z,72.47
2018-09-28T05:54:45.580Z,71.13
2018-09-28T05:57:15.298Z,69.74
2018-09-28T05:59:50.374Z,69.18
2018-09-28T06:02:25.198Z,68.71
2018-09-28T06:05:00.102Z,66.44
2018-09-28T06:07:29.899Z,66.41
2018-09-28T06:09:59.625Z,67.27
2018-09-28T06:12:29.377Z,67.57
2018-09-28T06:14:59.129Z,67.65
2018-09-28T06:17:28.945Z,67.85
2018-09-28T06:19:58.826Z,67.77
2018-09-28T06:22:28.588Z,67.45
2018-09-28T06:24:58.350Z,67.89
2018-09-28T06:27:28.108Z,66.12
2018-09-28T06:29:57.945Z,65.36
2018-09-28T06:32:27.709Z,63.48
2018-09-28T06:34:57.442Z,63.21
2018-09-28T06:37:26.849Z,64.85
2018-09-28T06:39:56.639Z,65.68
2018-09-28T06:42:26.489Z,66.21
2018-09-28T06:44:56.193Z,65.64
2018-09-28T06:47:25.968Z,65.49
2018-09-28T06:49:55.712Z,64.53
2018-09-28T06:52:25.523Z,64.20
2018-09-28T06:54:55.345Z,64.40
2018-09-28T06:57:25.155Z,63.82
2018-09-28T06:59:54.983Z,62.53
2018-09-28T07:02:24.874Z,61.17
2018-09-28T07:04:54.624Z,59.47
2018-09-28T07:07:25.191Z,59.59
2018-09-28T07:09:54.990Z,58.98
2018-09-28T07:12:24.813Z,60.03
2018-09-28T07:14:54.484Z,61.21
2018-09-28T07:17:24.241Z,61.82
2018-09-28T07:19:54.025Z,60.28
2018-09-28T07:22:23.852Z,58.77
2018-09-28T07:24:53.600Z,57.18
2018-09-28T07:27:23.418Z,57.07
2018-09-28T07:29:53.387Z,58.03
2018-09-28T07:32:23.122Z,59.52
2018-09-28T07:34:52.999Z,59.05
2018-09-28T07:37:22.720Z,58.27
2018-09-28T07:39:52.473Z,58.19
2018-09-28T07:42:22.360Z,59.01
2018-09-28T07:44:52.566Z,59.04
2018-09-28T07:47:22.578Z,61.02
2018-09-28T07:49:52.461Z,62.08
2018-09-28T07:52:22.272Z,62.80
2018-09-28T07:54:52.025Z,62.63
2018-09-28T07:57:21.766Z,62.14
2018-09-28T07:59:51.535Z,61.90
2018-09-28T08:02:21.341Z,63.02
2018-09-28T08:04:51.137Z,63.13
2018-09-28T08:07:20.934Z,62.52
2018-09-28T08:09:50.761Z,63.04
2018-09-28T08:12:20.537Z,63.59
2018-09-28T08:14:50.291Z,65.08
2018-09-28T08:17:20.029Z,65.61
2018-09-28T08:19:49.824Z,66.40
2018-09-28T08:22:19.589Z,66.30
2018-09-28T08:24:49.337Z,65.96
2018-09-28T08:27:19.133Z,67.13
2018-09-28T08:29:48.899Z,68.08
2018-09-28T08:32:18.676Z,68.02
2018-09-28T08:34:48.059Z,68.65
2018-09-28T08:37:17.825Z,70.69
2018-09-28T08:39:47.517Z,71.74
2018-09-28T08:42:17.263Z,73.79
2018-09-28T08:44:47.029Z,74.86
2018-09-28T08:47:16.765Z,76.12
2018-09-28T08:49:46.613Z,77.08
2018-09-28T08:52:16.344Z,77.35
2018-09-28T08:54:46.071Z,78.04
2018-09-28T08:57:15.787Z,78.18
2018-09-28T08:59:45.554Z,77.50
2018-09-28T09:02:15.463Z,77.29
2018-09-28T09:04:44.832Z,78.04
2018-09-28T09:07:14.593Z,78.27
2018-09-28T09:09:44.386Z,78.76
2018-09-28T09:12:14.139Z,79.80
2018-09-28T09:14:43.908Z,79.41
2018-09-28T09:17:13.718Z,80.28
2018-09-28T09:19:43.454Z,79.89
2018-09-28T09:22:13.265Z,80.58
2018-09-28T09:24:43.003Z,79.91
2018-09-28T09:27:12.709Z,80.27
2018-09-28T09:29:42.517Z,80.02
2018-09-28T09:32:12.269Z,79.12
2018-09-28T09:34:42.060Z,78.56
2018-09-28T09:37:11.804Z,78.10
2018-09-28T09:39:41.546Z,77.48
2018-09-28T09:42:11.312Z,76.61
2018-09-28T09:44:41.624Z,74.86
2018-09-28T09:47:11.403Z,73.06
2018-09-28T09:49:41.172Z,73.54
2018-09-28T09:52:10.943Z,72.19
2018-09-28T09:54:40.799Z,71.37
2018-09-28T09:57:10.584Z,69.65
2018-09-28T09:59:40.426Z,69.39
2018-09-28T10:02:15.332Z,69.79
2018-09-28T10:04:45.120Z,68.76
2018-09-28T10:07:14.849Z,65.03
2018-09-28T10:09:44.562Z,64.24
2018-09-28T10:12:14.310Z,63.21
2018-09-28T10:14:44.034Z,64.38
2018-09-28T10:17:13.821Z,63.88
2018-09-28T10:19:43.609Z,63.47
2018-09-28T10:22:13.374Z,63.38
2018-09-28T10:24:43.123Z,63.49
2018-09-28T10:27:12.962Z,63.73
2018-09-28T10:29:42.770Z,63.67
2018-09-28T10:32:12.621Z,64.76
2018-09-28T10:34:42.376Z,66.13
2018-09-28T10:37:12.169Z,66.75
2018-09-28T10:39:42.025Z,67.78
2018-09-28T10:42:11.673Z,67.99
2018-09-28T10:44:41.406Z,66.92
2018-09-28T10:47:11.142Z,64.94
2018-09-28T10:49:40.901Z,64.90
2018-09-28T10:52:10.884Z,62.09
2018-09-28T10:54:40.524Z,59.31
2018-09-28T10:57:10.374Z,55.78
2018-09-28T10:59:40.098Z,56.46
2018-09-28T11:02:09.819Z,56.99
2018-09-28T11:04:39.573Z,57.75
2018-09-28T11:07:09.366Z,58.22
2018-09-28T11:09:38.789Z,58.70
2018-09-28T11:12:08.869Z,58.87
2018-09-28T11:14:38.673Z,56.91
2018-09-28T11:17:08.483Z,53.63
2018-09-28T11:19:38.305Z,50.03
2018-09-28T11:22:08.143Z,49.20
2018-09-28T11:24:37.874Z,49.25
2018-09-28T11:27:07.656Z,48.81
2018-09-28T11:29:37.547Z,48.13
2018-09-28T11:32:07.461Z,46.98
2018-09-28T11:34:37.254Z,47.46
2018-09-28T11:37:07.051Z,47.78
2018-09-28T11:39:36.981Z,49.35
2018-09-28T11:42:06.699Z,48.21
2018-09-28T11:44:36.418Z,48.49
2018-09-28T11:47:06.234Z,48.84
2018-09-28T11:49:35.965Z,49.19
2018-09-28T11:52:05.703Z,48.33
2018-09-28T11:54:35.955Z,47.16
2018-09-28T11:57:05.734Z,47.58
2018-09-28T11:59:35.479Z,46.67
2018-09-28T12:02:05.215Z,42.96
2018-09-28T12:04:34.957Z,41.19
2018-09-28T12:07:04.758Z,39.14
2018-09-28T12:09:34.512Z,37.87
2018-09-28T12:12:04.288Z,39.04
2018-09-28T12:14:34.047Z,39.20
2018-09-28T12:17:03.831Z,39.46
2018-09-28T12:19:33.662Z,39.62
2018-09-28T12:22:03.609Z,40.70
2018-09-28T12:24:33.432Z,40.13
2018-09-28T12:27:03.155Z,40.54
2018-09-28T12:29:32.928Z,41.03
2018-09-28T12:32:02.707Z,39.66
2018-09-28T12:34:32.466Z,39.23
2018-09-28T12:37:02.230Z,39.21
2018-09-28T12:39:32.042Z,39.17
2018-09-28T12:42:01.805Z,39.26
2018-09-28T12:44:31.701Z,39.10
2018-09-28T12:47:01.796Z,38.61
2018-09-28T12:49:31.769Z,39.42
2018-09-28T12:52:01.573Z,38.93
2018-09-28T12:54:31.533Z,37.63
2018-09-28T12:57:01.432Z,37.37
2018-09-28T12:59:31.885Z,34.67
2018-09-28T13:02:01.783Z,34.51
2018-09-28T13:04:31.922Z,34.65
2018-09-28T13:07:01.763Z,35.84
2018-09-28T13:09:31.536Z,36.45
2018-09-28T13:12:01.233Z,35.83
2018-09-28T13:14:31.858Z,35.65
2018-09-28T13:17:02.534Z,36.58
2018-09-28T13:19:32.972Z,35.68
2018-09-28T13:22:02.834Z,35.61
2018-09-28T13:24:32.835Z,36.85
2018-09-28T13:27:02.764Z,36.32
2018-09-28T13:29:32.624Z,37.96
2018-09-28T13:32:02.466Z,39.37
2018-09-28T13:34:32.284Z,39.57
2018-09-28T13:37:02.280Z,39.09
2018-09-28T13:39:32.161Z,40.32
2018-09-28T13:42:01.938Z,39.97
2018-09-28T13:44:31.844Z,41.23
2018-09-28T13:47:01.645Z,42.06
2018-09-28T13:49:31.777Z,42.10
2018-09-28T13:52:01.696Z,42.80
2018-09-28T13:54:31.414Z,42.48
2018-09-28T13:57:01.562Z,41.85
2018-09-28T13:59:31.374Z,41.73
2018-09-28T14:02:01.265Z,40.91
2018-09-28T14:04:31.066Z,40.62
2018-09-28T14:07:01.104Z,37.93
2018-09-28T14:09:30.798Z,38.98
2018-09-28T14:12:00.690Z,39.40
2018-09-28T14:14:30.515Z,39.53
2018-09-28T14:17:00.411Z,40.26
2018-09-28T14:19:30.238Z,40.50
2018-09-28T14:21:59.968Z,41.03
2018-09-28T14:24:29.848Z,40.84
2018-09-28T14:26:59.650Z,40.49
2018-09-28T14:29:29.465Z,41.22
2018-09-28T14:31:58.978Z,40.58
2018-09-28T14:34:28.934Z,40.62
2018-09-28T14:36:58.672Z,39.63
2018-09-28T14:39:28.538Z,39.40
2018-09-28T14:41:58.422Z,39.57
2018-09-28T14:44:28.250Z,40.40
2018-09-28T14:46:57.960Z,40.32
2018-09-28T14:49:27.794Z,39.89
2018-09-28T14:51:57.628Z,39.91
2018-09-28T14:54:27.655Z,41.07
2018-09-28T14:56:57.411Z,40.91
2018-09-28T14:59:27.523Z,41.26
2018-09-28T15:01:57.408Z,41.34
2018-09-28T15:04:27.400Z,41.39
2018-09-28T15:06:57.220Z,41.37
2018-09-28T15:09:27.799Z,40.59
2018-09-28T15:11:57.245Z,40.37
2018-09-28T15:14:27.742Z,41.06
2018-09-28T15:16:57.718Z,39.64
2018-09-28T15:19:27.691Z,40.22
2018-09-28T15:21:57.556Z,39.68
2018-09-28T15:24:27.380Z,39.88
2018-09-28T15:26:57.179Z,39.55
2018-09-28T15:29:26.952Z,39.79
2018-09-28T15:31:56.833Z,39.62
2018-09-28T15:34:26.717Z,38.97
2018-09-28T15:36:56.503Z,39.37
2018-09-28T15:39:26.725Z,39.61
2018-09-28T15:41:56.284Z,39.38
2018-09-28T15:44:26.049Z,39.88
2018-09-28T15:46:55.836Z,39.80
2018-09-28T15:49:25.610Z,39.48
2018-09-28T15:51:55.416Z,39.92
2018-09-28T15:54:25.203Z,40.72
2018-09-28T15:56:55.086Z,40.25
2018-09-28T15:59:24.868Z,40.39
2018-09-28T16:01:54.609Z,40.11
2018-09-28T16:04:24.393Z,40.00
2018-09-28T16:06:54.333Z,39.53
2018-09-28T16:09:25.118Z,39.57
2018-09-28T16:11:56.311Z,39.32
2018-09-28T16:14:26.712Z,39.72
2018-09-28T16:16:57.062Z,39.55
2018-09-28T16:19:27.605Z,39.67
2018-09-28T16:21:58.017Z,40.47
2018-09-28T16:24:27.756Z,40.56
2018-09-28T16:26:59.107Z,40.80
2018-09-28T16:29:30.090Z,41.19
2018-09-28T16:32:02.752Z,40.16
2018-09-28T16:34:32.764Z,39.59
2018-09-28T16:37:02.902Z,40.58
2018-09-28T16:39:32.913Z,39.66
2018-09-28T16:42:03.087Z,40.20
2018-09-28T16:44:33.305Z,40.17
2018-09-28T16:47:04.280Z,39.92
2018-09-28T16:49:34.225Z,40.69
2018-09-28T16:52:04.403Z,40.21
2018-09-28T16:54:34.343Z,40.13
2018-09-28T16:57:04.621Z,39.80
2018-09-28T16:59:34.629Z,39.82
2018-09-28T17:02:04.703Z,39.98
2018-09-28T17:04:34.201Z,40.24
2018-09-28T17:07:08.170Z,40.89
2018-09-28T17:09:38.422Z,41.08
2018-09-28T17:12:08.775Z,41.26
2018-09-28T17:14:39.167Z,41.17
2018-09-28T17:17:08.661Z,41.94
2018-09-28T17:19:38.608Z,42.18
2018-09-28T17:22:09.079Z,41.72
2018-09-28T17:24:39.282Z,42.17
2018-09-28T17:27:09.355Z,42.50
2018-09-28T17:29:39.626Z,43.19
2018-09-28T17:32:09.261Z,43.47
2018-09-28T17:34:39.397Z,43.62
2018-09-28T17:37:10.575Z,43.94
2018-09-28T17:39:40.199Z,43.86
2018-09-28T17:42:10.270Z,44.07
2018-09-28T17:44:41.421Z,44.90
2018-09-28T17:47:12.548Z,44.95
2018-09-28T17:49:42.617Z,45.38
2018-09-28T17:52:12.539Z,45.37
2018-09-28T17:54:43.117Z,45.35
2018-09-28T17:57:12.716Z,45.66
2018-09-28T17:59:42.989Z,45.73
2018-09-28T18:02:13.457Z,46.04
2018-09-28T18:04:43.371Z,46.11
2018-09-28T18:07:13.416Z,46.61
2018-09-28T18:09:43.430Z,46.97
2018-09-28T18:12:13.068Z,47.27
2018-09-28T18:14:42.761Z,47.69
2018-09-28T18:17:12.595Z,47.56
2018-09-28T18:19:44.489Z,48.33
2018-09-28T18:22:14.128Z,48.26
2018-09-28T18:24:43.964Z,48.10
2018-09-28T18:27:13.804Z,48.23
2018-09-28T18:29:43.835Z,48.06
2018-09-28T18:32:13.979Z,48.25
2018-09-28T18:34:45.136Z,48.45
2018-09-28T18:37:15.296Z,48.87
2018-09-28T18:39:44.873Z,49.11
2018-09-28T18:42:14.475Z,49.31
2018-09-28T18:44:44.309Z,49.29
2018-09-28T18:47:13.785Z,49.91
2018-09-28T18:49:43.893Z,49.79
2018-09-28T18:52:14.089Z,49.82
2018-09-28T18:54:44.193Z,50.05
2018-09-28T18:57:13.864Z,50.38
2018-09-28T18:59:43.756Z,50.15
2018-09-28T19:02:13.820Z,50.46
2018-09-28T19:04:44.872Z,51.01
2018-09-28T19:07:14.404Z,50.90
2018-09-28T19:09:44.455Z,50.77
2018-09-28T19:12:14.492Z,50.93
2018-09-28T19:14:44.568Z,51.36
2018-09-28T19:17:14.469Z,51.53
2018-09-28T19:19:50.837Z,51.25
2018-09-28T19:22:20.952Z,52.00
2018-09-28T19:24:50.516Z,52.50
2018-09-28T19:27:21.031Z,52.79
2018-09-28T19:29:51.041Z,52.69
2018-09-28T19:32:21.499Z,52.35
2018-09-28T19:34:51.151Z,52.27
2018-09-28T19:37:21.179Z,52.04
2018-09-28T19:39:51.137Z,52.33
2018-09-28T19:42:21.025Z,53.12
2018-09-28T19:44:50.910Z,52.77
2018-09-28T19:47:20.828Z,53.03
2018-09-28T19:49:50.983Z,53.64
2018-09-28T19:52:21.060Z,53.76
2018-09-28T19:54:50.634Z,53.46
2018-09-28T19:57:20.673Z,53.62
2018-09-28T19:59:51.829Z,54.11
2018-09-28T20:02:22.258Z,54.30
2018-09-28T20:04:52.772Z,54.24
2018-09-28T20:07:23.365Z,54.75
2018-09-28T20:09:53.443Z,55.22
2018-09-28T20:12:22.924Z,55.55
2018-09-28T20:14:52.389Z,56.13
2018-09-28T20:17:22.179Z,55.83
2018-09-28T20:19:53.243Z,56.84
2018-09-28T20:22:22.685Z,57.73
2018-09-28T20:24:52.161Z,58.65
2018-09-28T20:27:22.084Z,59.42
2018-09-28T20:29:52.047Z,60.30
2018-09-28T20:32:22.169Z,61.22
2018-09-28T20:34:51.673Z,60.82
2018-09-28T20:37:21.596Z,61.49
2018-09-28T20:39:51.496Z,60.87
2018-09-28T20:42:21.286Z,61.48
2018-09-28T20:44:50.691Z,61.92
2018-09-28T20:47:20.109Z,62.08
2018-09-28T20:49:49.901Z,62.36
2018-09-28T20:52:19.643Z,62.34
2018-09-28T20:54:49.355Z,62.64
2018-09-28T20:57:19.123Z,63.01
2018-09-28T20:59:49.055Z,64.04
2018-09-28T21:02:18.839Z,64.45
2018-09-28T21:04:48.220Z,64.98
2018-09-28T21:07:18.598Z,65.27
2018-09-28T21:09:48.393Z,65.97
2018-09-28T21:12:17.791Z,66.33
2018-09-28T21:14:47.321Z,66.16
2018-09-28T21:17:17.146Z,67.02
2018-09-28T21:19:46.961Z,67.66
2018-09-28T21:22:16.895Z,67.89
2018-09-28T21:24:46.364Z,68.05
2018-09-28T21:27:16.415Z,68.59
2018-09-28T21:29:46.190Z,68.69
2018-09-28T21:32:16.011Z,69.43
2018-09-28T21:34:45.785Z,69.87
2018-09-28T21:37:15.242Z,70.52
2018-09-28T21:39:45.026Z,70.33
2018-09-28T21:42:15.001Z,70.51
2018-09-28T21:44:44.882Z,70.71
2018-09-28T21:47:14.667Z,71.24
2018-09-28T21:49:44.009Z,70.72
2018-09-28T21:52:13.380Z,70.97
2018-09-28T21:54:42.784Z,70.87
2018-09-28T21:57:12.380Z,70.52
2018-09-28T21:59:42.191Z,70.85
2018-09-28T22:02:11.882Z,71.70
2018-09-28T22:04:41.651Z,71.82
2018-09-28T22:07:11.391Z,71.86
2018-09-28T22:09:40.792Z,72.56
2018-09-28T22:12:10.593Z,72.20
2018-09-28T22:14:40.380Z,72.92
2018-09-28T22:17:10.396Z,72.66
2018-09-28T22:19:40.088Z,73.15
2018-09-28T22:22:09.546Z,73.36
2018-09-28T22:24:38.941Z,73.92
2018-09-28T22:27:08.314Z,73.25
2018-09-28T22:29:37.690Z,73.18
2018-09-28T22:32:07.469Z,73.30
2018-09-28T22:34:37.150Z,73.67
2018-09-28T22:37:06.596Z,74.25
2018-09-28T22:39:36.045Z,74.10
2018-09-28T22:42:05.854Z,74.68
2018-09-28T22:44:35.626Z,74.88
2018-09-28T22:47:04.994Z,75.01
2018-09-28T22:49:34.778Z,74.55
2018-09-28T22:52:04.533Z,74.71
2018-09-28T22:54:34.266Z,75.14
2018-09-28T22:57:04.036Z,74.94
2018-09-28T22:59:34.074Z,75.05
2018-09-28T23:02:03.489Z,76.92
2018-09-28T23:04:33.357Z,76.82
2018-09-28T23:07:03.124Z,75.95
2018-09-28T23:09:32.808Z,76.10
2018-09-28T23:12:02.223Z,75.48
2018-09-28T23:14:31.624Z,75.83
2018-09-28T23:17:01.006Z,76.78
2018-09-28T23:19:30.433Z,76.96
2018-09-28T23:22:00.219Z,76.29
2018-09-28T23:24:29.605Z,76.83
2018-09-28T23:26:59.125Z,76.92
2018-09-28T23:29:28.776Z,76.88
2018-09-28T23:31:58.536Z,77.05
2018-09-28T23:34:28.253Z,77.77
2018-09-28T23:36:57.677Z,77.17
2018-09-28T23:39:27.475Z,77.89
2018-09-28T23:41:57.344Z,78.21
2018-09-28T23:44:27.129Z,78.51
2018-09-28T23:46:56.841Z,77.90
2018-09-28T23:49:26.537Z,77.24
2018-09-28T23:51:55.896Z,77.29
2018-09-28T23:54:25.697Z,77.54
2018-09-28T23:56:55.406Z,77.80
2018-09-28T23:59:25.218Z,77.74
